sensor_id;sensor_type;location;lat;lon;timestamp;temperature;humidity
23137;DHT22;11737;50.558;7.258;2022-07-17T00:01:26;14.30;85.80
23137;DHT22;11737;50.558;7.258;2022-07-17T00:03:54;14.30;86.40
23137;DHT22;11737;50.558;7.258;2022-07-17T00:06:21;14.20;86.20
23137;DHT22;11737;50.558;7.258;2022-07-17T00:08:49;14.20;87.00
23137;DHT22;11737;50.558;7.258;2022-07-17T00:11:16;14.20;86.20
23137;DHT22;11737;50.558;7.258;2022-07-17T00:13:44;14.20;86.30
23137;DHT22;11737;50.558;7.258;2022-07-17T00:16:11;14.20;86.20
23137;DHT22;11737;50.558;7.258;2022-07-17T00:18:39;14.10;87.10
23137;DHT22;11737;50.558;7.258;2022-07-17T00:21:06;14.00;87.50
23137;DHT22;11737;50.558;7.258;2022-07-17T00:23:34;13.90;87.70
23137;DHT22;11737;50.558;7.258;2022-07-17T00:26:02;13.90;87.00
23137;DHT22;11737;50.558;7.258;2022-07-17T00:28:29;13.90;87.40
23137;DHT22;11737;50.558;7.258;2022-07-17T00:30:57;13.80;86.40
23137;DHT22;11737;50.558;7.258;2022-07-17T00:33:24;13.90;88.20
23137;DHT22;11737;50.558;7.258;2022-07-17T00:35:52;13.80;87.70
23137;DHT22;11737;50.558;7.258;2022-07-17T00:38:19;13.80;88.60
23137;DHT22;11737;50.558;7.258;2022-07-17T00:40:47;13.70;89.70
23137;DHT22;11737;50.558;7.258;2022-07-17T00:43:14;13.60;89.30
23137;DHT22;11737;50.558;7.258;2022-07-17T00:45:42;13.60;89.40
23137;DHT22;11737;50.558;7.258;2022-07-17T00:48:12;13.50;89.80
23137;DHT22;11737;50.558;7.258;2022-07-17T00:50:41;13.50;90.20
23137;DHT22;11737;50.558;7.258;2022-07-17T00:53:09;13.50;89.70
23137;DHT22;11737;50.558;7.258;2022-07-17T00:55:38;13.70;90.50
23137;DHT22;11737;50.558;7.258;2022-07-17T00:58:08;13.70;89.50
23137;DHT22;11737;50.558;7.258;2022-07-17T01:00:37;13.70;90.00
23137;DHT22;11737;50.558;7.258;2022-07-17T01:03:04;13.70;90.20
23137;DHT22;11737;50.558;7.258;2022-07-17T01:05:51;13.70;90.80
23137;DHT22;11737;50.558;7.258;2022-07-17T01:08:19;13.60;90.70
23137;DHT22;11737;50.558;7.258;2022-07-17T01:10:47;13.60;90.50
23137;DHT22;11737;50.558;7.258;2022-07-17T01:13:15;13.70;90.20
23137;DHT22;11737;50.558;7.258;2022-07-17T01:15:44;13.70;90.50
23137;DHT22;11737;50.558;7.258;2022-07-17T01:18:14;13.60;90.80
23137;DHT22;11737;50.558;7.258;2022-07-17T01:20:45;13.60;90.30
23137;DHT22;11737;50.558;7.258;2022-07-17T01:23:13;13.50;90.90
23137;DHT22;11737;50.558;7.258;2022-07-17T01:25:41;13.50;90.70
23137;DHT22;11737;50.558;7.258;2022-07-17T01:28:08;13.50;90.60
23137;DHT22;11737;50.558;7.258;2022-07-17T01:30:36;13.50;90.90
23137;DHT22;11737;50.558;7.258;2022-07-17T01:33:04;13.50;90.60
23137;DHT22;11737;50.558;7.258;2022-07-17T01:35:32;13.50;90.80
23137;DHT22;11737;50.558;7.258;2022-07-17T01:38:00;13.40;91.00
23137;DHT22;11737;50.558;7.258;2022-07-17T01:40:27;13.30;91.30
23137;DHT22;11737;50.558;7.258;2022-07-17T01:42:55;13.30;91.00
23137;DHT22;11737;50.558;7.258;2022-07-17T01:45:22;13.30;91.00
23137;DHT22;11737;50.558;7.258;2022-07-17T01:47:50;13.30;91.30
23137;DHT22;11737;50.558;7.258;2022-07-17T01:50:17;13.30;91.20
23137;DHT22;11737;50.558;7.258;2022-07-17T01:52:45;13.30;91.80
23137;DHT22;11737;50.558;7.258;2022-07-17T01:55:15;13.20;91.70
23137;DHT22;11737;50.558;7.258;2022-07-17T01:57:43;13.30;91.60
23137;DHT22;11737;50.558;7.258;2022-07-17T02:00:14;13.20;91.60
23137;DHT22;11737;50.558;7.258;2022-07-17T02:02:44;13.10;92.00
23137;DHT22;11737;50.558;7.258;2022-07-17T02:05:11;12.90;92.70
23137;DHT22;11737;50.558;7.258;2022-07-17T02:07:39;12.80;92.80
23137;DHT22;11737;50.558;7.258;2022-07-17T02:10:09;12.80;92.70
23137;DHT22;11737;50.558;7.258;2022-07-17T02:12:36;12.70;92.90
23137;DHT22;11737;50.558;7.258;2022-07-17T02:15:05;12.70;93.30
23137;DHT22;11737;50.558;7.258;2022-07-17T02:17:32;12.70;93.00
23137;DHT22;11737;50.558;7.258;2022-07-17T02:20:00;12.80;93.00
23137;DHT22;11737;50.558;7.258;2022-07-17T02:22:28;12.80;93.20
23137;DHT22;11737;50.558;7.258;2022-07-17T02:24:55;12.90;92.70
23137;DHT22;11737;50.558;7.258;2022-07-17T02:27:23;12.80;92.80
23137;DHT22;11737;50.558;7.258;2022-07-17T02:29:50;12.80;92.80
23137;DHT22;11737;50.558;7.258;2022-07-17T02:32:18;12.80;93.00
23137;DHT22;11737;50.558;7.258;2022-07-17T02:34:45;12.70;93.10
23137;DHT22;11737;50.558;7.258;2022-07-17T02:37:12;12.60;93.20
23137;DHT22;11737;50.558;7.258;2022-07-17T02:39:40;12.60;93.40
23137;DHT22;11737;50.558;7.258;2022-07-17T02:42:09;12.50;93.70
23137;DHT22;11737;50.558;7.258;2022-07-17T02:44:37;12.50;93.90
23137;DHT22;11737;50.558;7.258;2022-07-17T02:47:04;12.40;93.30
23137;DHT22;11737;50.558;7.258;2022-07-17T02:49:32;12.40;93.30
23137;DHT22;11737;50.558;7.258;2022-07-17T02:51:59;12.40;93.40
23137;DHT22;11737;50.558;7.258;2022-07-17T02:54:27;12.30;93.60
23137;DHT22;11737;50.558;7.258;2022-07-17T02:56:54;12.30;93.50
23137;DHT22;11737;50.558;7.258;2022-07-17T02:59:22;12.30;93.60
23137;DHT22;11737;50.558;7.258;2022-07-17T03:01:49;12.30;93.60
23137;DHT22;11737;50.558;7.258;2022-07-17T03:04:17;12.20;93.80
23137;DHT22;11737;50.558;7.258;2022-07-17T03:06:44;12.20;93.80
23137;DHT22;11737;50.558;7.258;2022-07-17T03:09:12;12.20;94.10
23137;DHT22;11737;50.558;7.258;2022-07-17T03:11:39;12.20;94.30
23137;DHT22;11737;50.558;7.258;2022-07-17T03:14:07;12.20;94.40
23137;DHT22;11737;50.558;7.258;2022-07-17T03:16:34;12.20;94.40
23137;DHT22;11737;50.558;7.258;2022-07-17T03:19:02;12.20;94.10
23137;DHT22;11737;50.558;7.258;2022-07-17T03:21:29;12.20;94.00
23137;DHT22;11737;50.558;7.258;2022-07-17T03:23:57;12.20;94.00
23137;DHT22;11737;50.558;7.258;2022-07-17T03:26:24;12.20;93.90
23137;DHT22;11737;50.558;7.258;2022-07-17T03:28:52;12.20;93.40
23137;DHT22;11737;50.558;7.258;2022-07-17T03:31:19;12.30;93.50
23137;DHT22;11737;50.558;7.258;2022-07-17T03:33:47;12.30;93.70
23137;DHT22;11737;50.558;7.258;2022-07-17T03:36:14;12.10;94.00
23137;DHT22;11737;50.558;7.258;2022-07-17T03:38:42;12.00;94.60
23137;DHT22;11737;50.558;7.258;2022-07-17T03:41:09;11.90;94.80
23137;DHT22;11737;50.558;7.258;2022-07-17T03:43:38;11.90;94.40
23137;DHT22;11737;50.558;7.258;2022-07-17T03:46:05;11.90;94.80
23137;DHT22;11737;50.558;7.258;2022-07-17T03:48:33;11.90;95.00
23137;DHT22;11737;50.558;7.258;2022-07-17T03:51:01;11.90;94.90
23137;DHT22;11737;50.558;7.258;2022-07-17T03:53:28;12.00;95.30
23137;DHT22;11737;50.558;7.258;2022-07-17T03:55:56;11.90;95.30
23137;DHT22;11737;50.558;7.258;2022-07-17T03:58:23;11.90;95.40
23137;DHT22;11737;50.558;7.258;2022-07-17T04:00:51;11.80;95.60
23137;DHT22;11737;50.558;7.258;2022-07-17T04:03:18;11.80;95.40
23137;DHT22;11737;50.558;7.258;2022-07-17T04:05:46;11.80;95.10
23137;DHT22;11737;50.558;7.258;2022-07-17T04:08:13;11.80;95.30
23137;DHT22;11737;50.558;7.258;2022-07-17T04:10:42;11.80;95.30
23137;DHT22;11737;50.558;7.258;2022-07-17T04:13:09;11.90;95.40
23137;DHT22;11737;50.558;7.258;2022-07-17T04:15:38;12.00;95.70
23137;DHT22;11737;50.558;7.258;2022-07-17T04:18:23;12.00;95.80
23137;DHT22;11737;50.558;7.258;2022-07-17T04:20:56;12.00;96.30
23137;DHT22;11737;50.558;7.258;2022-07-17T04:23:22;12.00;96.40
23137;DHT22;11737;50.558;7.258;2022-07-17T04:25:49;12.00;96.70
23137;DHT22;11737;50.558;7.258;2022-07-17T04:28:17;12.00;97.00
23137;DHT22;11737;50.558;7.258;2022-07-17T04:30:45;12.00;97.20
23137;DHT22;11737;50.558;7.258;2022-07-17T04:33:13;12.10;97.40
23137;DHT22;11737;50.558;7.258;2022-07-17T04:35:40;12.20;97.10
23137;DHT22;11737;50.558;7.258;2022-07-17T04:38:08;12.30;97.00
23137;DHT22;11737;50.558;7.258;2022-07-17T04:40:37;12.30;97.40
23137;DHT22;11737;50.558;7.258;2022-07-17T04:43:05;12.40;97.60
23137;DHT22;11737;50.558;7.258;2022-07-17T04:45:33;12.50;97.10
23137;DHT22;11737;50.558;7.258;2022-07-17T04:48:01;12.60;96.70
23137;DHT22;11737;50.558;7.258;2022-07-17T04:50:29;12.70;96.30
23137;DHT22;11737;50.558;7.258;2022-07-17T04:52:56;12.90;96.30
23137;DHT22;11737;50.558;7.258;2022-07-17T04:55:24;13.00;96.10
23137;DHT22;11737;50.558;7.258;2022-07-17T04:57:51;13.10;95.70
23137;DHT22;11737;50.558;7.258;2022-07-17T05:00:20;13.20;95.40
23137;DHT22;11737;50.558;7.258;2022-07-17T05:02:48;13.40;95.60
23137;DHT22;11737;50.558;7.258;2022-07-17T05:05:15;13.50;94.90
23137;DHT22;11737;50.558;7.258;2022-07-17T05:07:43;13.60;94.80
23137;DHT22;11737;50.558;7.258;2022-07-17T05:10:10;13.70;94.80
23137;DHT22;11737;50.558;7.258;2022-07-17T05:12:38;13.80;94.60
23137;DHT22;11737;50.558;7.258;2022-07-17T05:15:06;14.00;94.50
23137;DHT22;11737;50.558;7.258;2022-07-17T05:17:33;14.10;94.30
23137;DHT22;11737;50.558;7.258;2022-07-17T05:20:20;14.20;94.00
23137;DHT22;11737;50.558;7.258;2022-07-17T05:22:48;14.40;93.70
23137;DHT22;11737;50.558;7.258;2022-07-17T05:25:16;14.50;93.80
23137;DHT22;11737;50.558;7.258;2022-07-17T05:27:44;14.60;93.80
23137;DHT22;11737;50.558;7.258;2022-07-17T05:30:11;14.70;93.60
23137;DHT22;11737;50.558;7.258;2022-07-17T05:32:39;14.80;93.30
23137;DHT22;11737;50.558;7.258;2022-07-17T05:35:07;14.90;93.20
23137;DHT22;11737;50.558;7.258;2022-07-17T05:37:34;15.00;93.10
23137;DHT22;11737;50.558;7.258;2022-07-17T05:40:02;15.10;92.60
23137;DHT22;11737;50.558;7.258;2022-07-17T05:42:30;15.20;92.70
23137;DHT22;11737;50.558;7.258;2022-07-17T05:44:57;15.30;91.90
23137;DHT22;11737;50.558;7.258;2022-07-17T05:47:25;15.50;92.00
23137;DHT22;11737;50.558;7.258;2022-07-17T05:49:53;15.60;91.70
23137;DHT22;11737;50.558;7.258;2022-07-17T05:52:21;15.70;92.10
23137;DHT22;11737;50.558;7.258;2022-07-17T05:54:48;15.80;91.90
23137;DHT22;11737;50.558;7.258;2022-07-17T05:57:16;15.90;91.90
23137;DHT22;11737;50.558;7.258;2022-07-17T05:59:43;16.00;91.30
23137;DHT22;11737;50.558;7.258;2022-07-17T06:02:11;16.10;90.80
23137;DHT22;11737;50.558;7.258;2022-07-17T06:04:38;16.20;90.90
23137;DHT22;11737;50.558;7.258;2022-07-17T06:07:06;16.30;90.80
23137;DHT22;11737;50.558;7.258;2022-07-17T06:09:33;16.40;90.60
23137;DHT22;11737;50.558;7.258;2022-07-17T06:12:01;16.50;90.50
23137;DHT22;11737;50.558;7.258;2022-07-17T06:14:28;16.60;90.40
23137;DHT22;11737;50.558;7.258;2022-07-17T06:16:56;16.70;90.20
23137;DHT22;11737;50.558;7.258;2022-07-17T06:19:24;16.80;90.40
23137;DHT22;11737;50.558;7.258;2022-07-17T06:21:51;16.90;90.50
23137;DHT22;11737;50.558;7.258;2022-07-17T06:24:19;17.00;90.40
23137;DHT22;11737;50.558;7.258;2022-07-17T06:26:46;17.10;90.30
23137;DHT22;11737;50.558;7.258;2022-07-17T06:29:14;17.30;89.60
23137;DHT22;11737;50.558;7.258;2022-07-17T06:31:41;17.40;89.40
23137;DHT22;11737;50.558;7.258;2022-07-17T06:34:09;17.60;88.10
23137;DHT22;11737;50.558;7.258;2022-07-17T06:36:36;17.70;88.20
23137;DHT22;11737;50.558;7.258;2022-07-17T06:39:04;17.80;88.00
23137;DHT22;11737;50.558;7.258;2022-07-17T06:41:31;18.00;87.70
23137;DHT22;11737;50.558;7.258;2022-07-17T06:43:59;18.10;86.50
23137;DHT22;11737;50.558;7.258;2022-07-17T06:46:26;18.30;86.10
23137;DHT22;11737;50.558;7.258;2022-07-17T06:48:54;18.40;85.60
23137;DHT22;11737;50.558;7.258;2022-07-17T06:51:21;18.50;86.30
23137;DHT22;11737;50.558;7.258;2022-07-17T06:53:49;18.60;84.50
23137;DHT22;11737;50.558;7.258;2022-07-17T06:56:16;18.80;83.50
23137;DHT22;11737;50.558;7.258;2022-07-17T06:58:44;18.90;83.60
23137;DHT22;11737;50.558;7.258;2022-07-17T07:01:11;19.00;83.20
23137;DHT22;11737;50.558;7.258;2022-07-17T07:03:39;19.20;82.40
23137;DHT22;11737;50.558;7.258;2022-07-17T07:06:07;19.30;82.80
23137;DHT22;11737;50.558;7.258;2022-07-17T07:08:35;19.40;82.90
23137;DHT22;11737;50.558;7.258;2022-07-17T07:11:02;19.50;82.20
23137;DHT22;11737;50.558;7.258;2022-07-17T07:13:30;19.70;82.60
23137;DHT22;11737;50.558;7.258;2022-07-17T07:15:57;19.70;82.40
23137;DHT22;11737;50.558;7.258;2022-07-17T07:18:26;19.90;81.30
23137;DHT22;11737;50.558;7.258;2022-07-17T07:20:53;20.00;80.90
23137;DHT22;11737;50.558;7.258;2022-07-17T07:23:21;20.10;80.80
23137;DHT22;11737;50.558;7.258;2022-07-17T07:25:48;20.30;81.00
23137;DHT22;11737;50.558;7.258;2022-07-17T07:28:16;20.40;80.50
23137;DHT22;11737;50.558;7.258;2022-07-17T07:30:43;20.50;80.40
23137;DHT22;11737;50.558;7.258;2022-07-17T07:33:11;20.60;79.60
23137;DHT22;11737;50.558;7.258;2022-07-17T07:35:38;20.80;77.70
23137;DHT22;11737;50.558;7.258;2022-07-17T07:38:06;20.90;78.20
23137;DHT22;11737;50.558;7.258;2022-07-17T07:40:33;21.00;77.90
23137;DHT22;11737;50.558;7.258;2022-07-17T07:43:01;21.10;77.60
23137;DHT22;11737;50.558;7.258;2022-07-17T07:45:29;21.20;77.00
23137;DHT22;11737;50.558;7.258;2022-07-17T07:47:58;21.30;77.90
23137;DHT22;11737;50.558;7.258;2022-07-17T07:50:26;21.50;77.50
23137;DHT22;11737;50.558;7.258;2022-07-17T07:52:55;21.60;75.80
23137;DHT22;11737;50.558;7.258;2022-07-17T07:55:23;21.70;74.70
23137;DHT22;11737;50.558;7.258;2022-07-17T07:58:06;21.80;75.10
23137;DHT22;11737;50.558;7.258;2022-07-17T08:00:35;21.90;75.20
23137;DHT22;11737;50.558;7.258;2022-07-17T08:03:03;22.10;73.40
23137;DHT22;11737;50.558;7.258;2022-07-17T08:05:31;22.20;73.90
23137;DHT22;11737;50.558;7.258;2022-07-17T08:07:59;22.30;73.50
23137;DHT22;11737;50.558;7.258;2022-07-17T08:10:27;22.40;73.90
23137;DHT22;11737;50.558;7.258;2022-07-17T08:12:54;22.50;73.00
23137;DHT22;11737;50.558;7.258;2022-07-17T08:15:22;22.50;72.80
23137;DHT22;11737;50.558;7.258;2022-07-17T08:17:52;22.70;72.60
23137;DHT22;11737;50.558;7.258;2022-07-17T08:20:21;22.80;71.90
23137;DHT22;11737;50.558;7.258;2022-07-17T08:22:49;23.00;72.00
23137;DHT22;11737;50.558;7.258;2022-07-17T08:25:17;23.10;70.30
23137;DHT22;11737;50.558;7.258;2022-07-17T08:27:45;23.30;70.50
23137;DHT22;11737;50.558;7.258;2022-07-17T08:30:13;23.40;70.80
23137;DHT22;11737;50.558;7.258;2022-07-17T08:32:42;23.50;70.00
23137;DHT22;11737;50.558;7.258;2022-07-17T08:35:11;23.60;69.90
23137;DHT22;11737;50.558;7.258;2022-07-17T08:37:49;23.70;69.30
23137;DHT22;11737;50.558;7.258;2022-07-17T08:40:22;23.80;68.30
23137;DHT22;11737;50.558;7.258;2022-07-17T08:42:51;24.00;65.50
23137;DHT22;11737;50.558;7.258;2022-07-17T08:45:19;24.10;66.00
23137;DHT22;11737;50.558;7.258;2022-07-17T08:47:48;24.10;65.50
23137;DHT22;11737;50.558;7.258;2022-07-17T08:50:21;24.20;66.30
23137;DHT22;11737;50.558;7.258;2022-07-17T08:52:47;24.20;65.20
23137;DHT22;11737;50.558;7.258;2022-07-17T08:55:16;24.30;62.30
23137;DHT22;11737;50.558;7.258;2022-07-17T08:57:45;24.40;63.20
23137;DHT22;11737;50.558;7.258;2022-07-17T09:00:18;24.40;64.90
23137;DHT22;11737;50.558;7.258;2022-07-17T09:02:57;24.50;64.70
23137;DHT22;11737;50.558;7.258;2022-07-17T09:05:33;24.60;64.00
23137;DHT22;11737;50.558;7.258;2022-07-17T09:07:57;24.70;63.80
23137;DHT22;11737;50.558;7.258;2022-07-17T09:10:37;24.70;62.70
23137;DHT22;11737;50.558;7.258;2022-07-17T09:13:16;24.70;62.60
23137;DHT22;11737;50.558;7.258;2022-07-17T09:15:45;24.70;61.60
23137;DHT22;11737;50.558;7.258;2022-07-17T09:18:13;24.80;62.30
23137;DHT22;11737;50.558;7.258;2022-07-17T09:20:57;24.90;59.60
23137;DHT22;11737;50.558;7.258;2022-07-17T09:23:23;25.00;57.50
23137;DHT22;11737;50.558;7.258;2022-07-17T09:25:53;25.00;58.70
23137;DHT22;11737;50.558;7.258;2022-07-17T09:28:22;25.00;58.30
23137;DHT22;11737;50.558;7.258;2022-07-17T09:30:53;25.00;60.10
23137;DHT22;11737;50.558;7.258;2022-07-17T09:33:26;25.10;58.30
23137;DHT22;11737;50.558;7.258;2022-07-17T09:36:09;25.20;59.80
23137;DHT22;11737;50.558;7.258;2022-07-17T09:38:41;25.30;60.40
23137;DHT22;11737;50.558;7.258;2022-07-17T09:41:15;25.40;59.40
23137;DHT22;11737;50.558;7.258;2022-07-17T09:43:50;25.50;57.00
23137;DHT22;11737;50.558;7.258;2022-07-17T09:46:34;25.50;56.90
23137;DHT22;11737;50.558;7.258;2022-07-17T09:48:58;25.50;54.90
23137;DHT22;11737;50.558;7.258;2022-07-17T09:51:31;25.50;55.10
23137;DHT22;11737;50.558;7.258;2022-07-17T09:54:02;25.60;58.10
23137;DHT22;11737;50.558;7.258;2022-07-17T09:56:32;25.60;58.10
23137;DHT22;11737;50.558;7.258;2022-07-17T09:59:07;25.80;57.20
23137;DHT22;11737;50.558;7.258;2022-07-17T10:01:36;25.90;58.00
23137;DHT22;11737;50.558;7.258;2022-07-17T10:04:04;26.00;55.80
23137;DHT22;11737;50.558;7.258;2022-07-17T10:06:33;26.00;54.40
23137;DHT22;11737;50.558;7.258;2022-07-17T10:09:01;26.00;53.20
23137;DHT22;11737;50.558;7.258;2022-07-17T10:11:32;26.00;55.00
23137;DHT22;11737;50.558;7.258;2022-07-17T10:14:06;26.10;55.00
23137;DHT22;11737;50.558;7.258;2022-07-17T10:16:34;26.20;56.20
23137;DHT22;11737;50.558;7.258;2022-07-17T10:19:15;26.20;51.90
23137;DHT22;11737;50.558;7.258;2022-07-17T10:21:57;26.30;51.90
23137;DHT22;11737;50.558;7.258;2022-07-17T10:24:26;26.40;51.70
23137;DHT22;11737;50.558;7.258;2022-07-17T10:26:56;26.40;52.00
23137;DHT22;11737;50.558;7.258;2022-07-17T10:29:38;26.40;52.40
23137;DHT22;11737;50.558;7.258;2022-07-17T10:32:16;26.50;52.70
23137;DHT22;11737;50.558;7.258;2022-07-17T10:34:49;26.60;54.30
23137;DHT22;11737;50.558;7.258;2022-07-17T10:40:18;26.90;53.70
23137;DHT22;11737;50.558;7.258;2022-07-17T10:48:06;27.20;54.00
23137;DHT22;11737;50.558;7.258;2022-07-17T10:50:36;27.10;54.80
23137;DHT22;11737;50.558;7.258;2022-07-17T10:53:11;27.20;54.00
23137;DHT22;11737;50.558;7.258;2022-07-17T10:55:41;27.10;54.30
23137;DHT22;11737;50.558;7.258;2022-07-17T10:58:23;27.20;53.90
23137;DHT22;11737;50.558;7.258;2022-07-17T11:01:05;27.30;54.00
23137;DHT22;11737;50.558;7.258;2022-07-17T11:03:31;27.30;54.10
23137;DHT22;11737;50.558;7.258;2022-07-17T11:06:19;27.40;50.10
23137;DHT22;11737;50.558;7.258;2022-07-17T11:09:09;27.50;52.60
23137;DHT22;11737;50.558;7.258;2022-07-17T11:11:48;27.50;52.70
23137;DHT22;11737;50.558;7.258;2022-07-17T11:14:35;27.50;52.20
23137;DHT22;11737;50.558;7.258;2022-07-17T11:17:04;27.60;50.80
23137;DHT22;11737;50.558;7.258;2022-07-17T11:19:37;27.60;52.20
23137;DHT22;11737;50.558;7.258;2022-07-17T11:22:07;27.80;52.30
23137;DHT22;11737;50.558;7.258;2022-07-17T11:24:44;27.90;50.80
23137;DHT22;11737;50.558;7.258;2022-07-17T11:27:23;27.90;49.90
23137;DHT22;11737;50.558;7.258;2022-07-17T11:29:53;28.00;49.60
23137;DHT22;11737;50.558;7.258;2022-07-17T11:32:21;28.00;51.40
23137;DHT22;11737;50.558;7.258;2022-07-17T11:34:49;28.00;52.40
23137;DHT22;11737;50.558;7.258;2022-07-17T11:37:16;28.00;51.50
23137;DHT22;11737;50.558;7.258;2022-07-17T11:39:49;28.10;50.50
23137;DHT22;11737;50.558;7.258;2022-07-17T11:42:19;28.20;48.20
23137;DHT22;11737;50.558;7.258;2022-07-17T11:44:53;28.20;50.70
23137;DHT22;11737;50.558;7.258;2022-07-17T11:47:22;28.30;49.20
23137;DHT22;11737;50.558;7.258;2022-07-17T11:49:50;28.30;47.20
23137;DHT22;11737;50.558;7.258;2022-07-17T11:52:19;28.30;47.50
23137;DHT22;11737;50.558;7.258;2022-07-17T11:54:55;28.40;50.00
23137;DHT22;11737;50.558;7.258;2022-07-17T12:00:12;28.40;47.50
23137;DHT22;11737;50.558;7.258;2022-07-17T12:02:40;28.30;46.00
23137;DHT22;11737;50.558;7.258;2022-07-17T12:05:08;28.30;44.30
23137;DHT22;11737;50.558;7.258;2022-07-17T12:07:47;28.30;46.00
23137;DHT22;11737;50.558;7.258;2022-07-17T12:10:20;28.40;49.90
23137;DHT22;11737;50.558;7.258;2022-07-17T12:12:56;28.40;50.40
23137;DHT22;11737;50.558;7.258;2022-07-17T12:15:45;28.50;45.50
23137;DHT22;11737;50.558;7.258;2022-07-17T12:18:24;28.70;48.00
23137;DHT22;11737;50.558;7.258;2022-07-17T12:20:53;28.80;49.90
23137;DHT22;11737;50.558;7.258;2022-07-17T12:23:37;28.80;48.10
23137;DHT22;11737;50.558;7.258;2022-07-17T12:26:10;28.90;47.70
23137;DHT22;11737;50.558;7.258;2022-07-17T12:28:39;29.00;48.10
23137;DHT22;11737;50.558;7.258;2022-07-17T12:31:12;29.00;50.00
23137;DHT22;11737;50.558;7.258;2022-07-17T12:33:41;29.10;46.80
23137;DHT22;11737;50.558;7.258;2022-07-17T12:36:09;29.10;46.70
23137;DHT22;11737;50.558;7.258;2022-07-17T12:38:37;29.20;48.40
23137;DHT22;11737;50.558;7.258;2022-07-17T12:41:05;29.30;45.10
23137;DHT22;11737;50.558;7.258;2022-07-17T12:43:34;29.30;45.60
23137;DHT22;11737;50.558;7.258;2022-07-17T12:46:02;29.40;42.50
23137;DHT22;11737;50.558;7.258;2022-07-17T12:48:29;29.40;42.80
23137;DHT22;11737;50.558;7.258;2022-07-17T12:50:57;29.50;44.30
23137;DHT22;11737;50.558;7.258;2022-07-17T12:53:25;29.50;48.10
23137;DHT22;11737;50.558;7.258;2022-07-17T12:55:52;29.60;48.40
23137;DHT22;11737;50.558;7.258;2022-07-17T12:58:20;29.50;46.20
23137;DHT22;11737;50.558;7.258;2022-07-17T13:00:47;29.60;46.00
23137;DHT22;11737;50.558;7.258;2022-07-17T13:03:15;29.70;40.70
23137;DHT22;11737;50.558;7.258;2022-07-17T13:05:43;29.80;42.70
23137;DHT22;11737;50.558;7.258;2022-07-17T13:08:10;29.90;40.30
23137;DHT22;11737;50.558;7.258;2022-07-17T13:10:38;29.90;43.60
23137;DHT22;11737;50.558;7.258;2022-07-17T13:13:05;29.90;41.60
23137;DHT22;11737;50.558;7.258;2022-07-17T13:15:33;30.00;42.60
23137;DHT22;11737;50.558;7.258;2022-07-17T13:18:01;30.00;42.10
23137;DHT22;11737;50.558;7.258;2022-07-17T13:20:29;30.20;44.00
23137;DHT22;11737;50.558;7.258;2022-07-17T13:22:56;30.20;46.70
23137;DHT22;11737;50.558;7.258;2022-07-17T13:25:24;30.20;48.70
23137;DHT22;11737;50.558;7.258;2022-07-17T13:27:51;30.10;46.10
23137;DHT22;11737;50.558;7.258;2022-07-17T13:30:19;30.20;40.30
23137;DHT22;11737;50.558;7.258;2022-07-17T13:32:46;30.20;39.60
23137;DHT22;11737;50.558;7.258;2022-07-17T13:35:14;30.30;43.90
23137;DHT22;11737;50.558;7.258;2022-07-17T13:37:44;30.30;44.70
23137;DHT22;11737;50.558;7.258;2022-07-17T13:40:12;30.30;43.40
23137;DHT22;11737;50.558;7.258;2022-07-17T13:42:39;30.40;40.80
23137;DHT22;11737;50.558;7.258;2022-07-17T13:45:08;30.40;41.00
23137;DHT22;11737;50.558;7.258;2022-07-17T13:47:36;30.40;39.20
23137;DHT22;11737;50.558;7.258;2022-07-17T13:50:05;30.50;43.40
23137;DHT22;11737;50.558;7.258;2022-07-17T13:52:33;30.50;46.10
23137;DHT22;11737;50.558;7.258;2022-07-17T13:55:00;30.50;41.30
23137;DHT22;11737;50.558;7.258;2022-07-17T13:57:28;30.40;41.40
23137;DHT22;11737;50.558;7.258;2022-07-17T13:59:55;30.40;44.00
23137;DHT22;11737;50.558;7.258;2022-07-17T14:02:24;30.50;40.10
23137;DHT22;11737;50.558;7.258;2022-07-17T14:04:51;30.50;40.80
23137;DHT22;11737;50.558;7.258;2022-07-17T14:07:19;30.60;45.10
23137;DHT22;11737;50.558;7.258;2022-07-17T14:09:47;30.90;43.40
23137;DHT22;11737;50.558;7.258;2022-07-17T14:12:14;31.10;40.80
23137;DHT22;11737;50.558;7.258;2022-07-17T14:14:42;31.40;37.80
23137;DHT22;11737;50.558;7.258;2022-07-17T14:17:09;31.60;37.80
23137;DHT22;11737;50.558;7.258;2022-07-17T14:19:37;31.80;38.70
23137;DHT22;11737;50.558;7.258;2022-07-17T14:22:04;32.30;41.20
23137;DHT22;11737;50.558;7.258;2022-07-17T14:24:32;32.70;34.90
23137;DHT22;11737;50.558;7.258;2022-07-17T14:27:00;33.00;38.10
23137;DHT22;11737;50.558;7.258;2022-07-17T14:29:27;33.40;38.90
23137;DHT22;11737;50.558;7.258;2022-07-17T14:31:54;33.90;35.30
23137;DHT22;11737;50.558;7.258;2022-07-17T14:34:22;34.10;38.40
23137;DHT22;11737;50.558;7.258;2022-07-17T14:36:49;34.50;37.30
23137;DHT22;11737;50.558;7.258;2022-07-17T14:39:17;34.90;36.70
23137;DHT22;11737;50.558;7.258;2022-07-17T14:41:44;35.10;36.40
23137;DHT22;11737;50.558;7.258;2022-07-17T14:44:13;35.60;36.20
23137;DHT22;11737;50.558;7.258;2022-07-17T14:46:41;35.90;36.30
23137;DHT22;11737;50.558;7.258;2022-07-17T14:49:08;36.30;36.30
23137;DHT22;11737;50.558;7.258;2022-07-17T14:51:36;36.60;33.40
23137;DHT22;11737;50.558;7.258;2022-07-17T14:54:03;36.80;31.20
23137;DHT22;11737;50.558;7.258;2022-07-17T14:56:31;36.90;33.30
23137;DHT22;11737;50.558;7.258;2022-07-17T14:58:58;37.10;33.10
23137;DHT22;11737;50.558;7.258;2022-07-17T15:01:26;37.30;33.20
23137;DHT22;11737;50.558;7.258;2022-07-17T15:03:53;37.60;34.50
23137;DHT22;11737;50.558;7.258;2022-07-17T15:06:21;38.10;31.90
23137;DHT22;11737;50.558;7.258;2022-07-17T15:08:49;38.50;33.20
23137;DHT22;11737;50.558;7.258;2022-07-17T15:11:16;38.90;32.90
23137;DHT22;11737;50.558;7.258;2022-07-17T15:13:44;38.90;32.10
23137;DHT22;11737;50.558;7.258;2022-07-17T15:16:11;38.90;32.00
23137;DHT22;11737;50.558;7.258;2022-07-17T15:18:39;39.20;28.80
23137;DHT22;11737;50.558;7.258;2022-07-17T15:21:08;39.60;31.40
23137;DHT22;11737;50.558;7.258;2022-07-17T15:23:35;40.00;30.40
23137;DHT22;11737;50.558;7.258;2022-07-17T15:26:04;40.50;29.50
23137;DHT22;11737;50.558;7.258;2022-07-17T15:28:31;40.90;30.00
23137;DHT22;11737;50.558;7.258;2022-07-17T15:30:59;41.00;31.50
23137;DHT22;11737;50.558;7.258;2022-07-17T15:33:26;41.30;29.70
23137;DHT22;11737;50.558;7.258;2022-07-17T15:35:54;41.40;29.20
23137;DHT22;11737;50.558;7.258;2022-07-17T15:38:21;41.40;28.80
23137;DHT22;11737;50.558;7.258;2022-07-17T15:40:49;41.50;30.10
23137;DHT22;11737;50.558;7.258;2022-07-17T15:43:17;41.80;30.00
23137;DHT22;11737;50.558;7.258;2022-07-17T15:45:44;42.20;29.90
23137;DHT22;11737;50.558;7.258;2022-07-17T15:48:12;42.60;28.60
23137;DHT22;11737;50.558;7.258;2022-07-17T15:50:40;43.00;29.00
23137;DHT22;11737;50.558;7.258;2022-07-17T15:53:07;43.30;26.10